Tug "trevor" — WCP6921 — position and weather

sailwx.info

Track history (hours):
 
Tides and Currents Weather Stations Pressure Air Temp Water Temp Dewpoint Dewpoint Depression Visibility Wind Speed Wind Dir Waves Ship Positions

Tug "trevor"

Owner: WEEKS MARINE, INC., CRANFORD, NJ. More information available from US FCC via Universal Licensing System and Coast Guard Vessel Documentation Center.

Last reported at 2017-Jan-22 01:33 UTC. Time now 2017-Jan-22 01:43 UTC.
Position N 39°54' W 075°08'.

Length 21 m; draft 3 m.

Type: Towing. MMSI: 366643140.

Date/timePositionNaut miles runAvg speedWind from/ knotsBaromVisibWave heightAir tempDewpointWater temp
2017-Jan-22 01:33N 39°54' W 075°08'0 0.0
2017-Jan-22 00:33N 39°54' W 075°08'0 0.0
2017-Jan-21 23:33N 39°54' W 075°08'0 0.3
2017-Jan-21 22:33N 39°54' W 075°09'0 0.0
2017-Jan-21 21:33N 39°54' W 075°09'0 0.3
2017-Jan-21 20:33N 39°54' W 075°08'0 0.1
2017-Jan-21 19:33N 39°54' W 075°08'0 0.0
2017-Jan-21 18:33N 39°54' W 075°08'0 0.0
2017-Jan-21 17:33N 39°54' W 075°08'0 0.0
2017-Jan-21 16:33N 39°54' W 075°08'0 0.0
2017-Jan-21 15:33N 39°54' W 075°08'3 2.8
2017-Jan-21 14:33N 39°53' W 075°12'5 5.0
2017-Jan-21 13:33N 39°51' W 075°18'0 0.1
2017-Jan-21 12:33N 39°51' W 075°18'0 0.1
2017-Jan-21 11:33N 39°51' W 075°18'3 3.2
2017-Jan-21 10:33N 39°50' W 075°22'0 0.0
2017-Jan-21 09:33N 39°50' W 075°22'0 0.0
2017-Jan-21 08:33N 39°50' W 075°22'0 0.0
2017-Jan-21 07:33N 39°50' W 075°22'0 0.0
2017-Jan-21 06:33N 39°50' W 075°22'0 0.0
2017-Jan-21 05:33N 39°50' W 075°22'0 0.0
2017-Jan-21 04:33N 39°50' W 075°22'0 0.0
2017-Jan-21 03:33N 39°50' W 075°22'3 2.5
2017-Jan-21 02:33N 39°51' W 075°19'1 0.9
2017-Jan-21 01:33N 39°51' W 075°18'0 0.0
2017-Jan-21 00:33N 39°51' W 075°18'0 0.0
2017-Jan-20 23:33N 39°51' W 075°18'2 2.1
2017-Jan-20 22:33N 39°51' W 075°21'1 1.3
2017-Jan-20 21:33N 39°50' W 075°22'0 0.2
2017-Jan-20 20:33N 39°49' W 075°22'0 0.2
2017-Jan-20 19:34N 39°50' W 075°22'0 0.2
2017-Jan-20 18:33N 39°49' W 075°22'0 0.1
2017-Jan-20 17:33N 39°49' W 075°22'0 0.1
2017-Jan-20 16:33N 39°49' W 075°22'0 0.0
2017-Jan-20 15:33N 39°49' W 075°22'0 0.0
2017-Jan-20 14:33N 39°49' W 075°22'0 0.0
2017-Jan-20 13:33N 39°49' W 075°22'0 0.0
2017-Jan-20 12:33N 39°49' W 075°22'0 0.0
2017-Jan-20 11:33N 39°49' W 075°22'0 0.0
2017-Jan-20 10:33N 39°49' W 075°22'0 0.0
2017-Jan-20 09:33N 39°49' W 075°22'0 0.0
2017-Jan-20 08:33N 39°49' W 075°22'0 0.0
2017-Jan-20 07:33N 39°49' W 075°22'0 0.0
2017-Jan-20 06:33N 39°49' W 075°22'0 0.0
2017-Jan-20 05:33N 39°49' W 075°22'0 0.0
2017-Jan-20 04:33N 39°49' W 075°22'0 0.0
2017-Jan-20 03:33N 39°49' W 075°22'0 0.0
2017-Jan-20 02:33N 39°49' W 075°22'0 0.0
2017-Jan-20 01:33N 39°49' W 075°22'0 0.0
2017-Jan-20 00:33N 39°49' W 075°22'0 0.0
2017-Jan-19 23:33N 39°49' W 075°22'0 0.0
2017-Jan-19 22:33N 39°49' W 075°22'0 0.0
2017-Jan-19 21:33N 39°49' W 075°22'0 0.0
2017-Jan-19 20:33N 39°49' W 075°22'0 0.0
2017-Jan-19 19:33N 39°49' W 075°22'0 0.0
2017-Jan-19 18:33N 39°49' W 075°22'0 0.0
2017-Jan-19 17:33N 39°49' W 075°22'0 0.0
2017-Jan-19 16:33N 39°49' W 075°22'0 0.0
2017-Jan-19 15:33N 39°49' W 075°22'0 0.1
2017-Jan-19 14:33N 39°49' W 075°22'0 0.1
2017-Jan-19 13:33N 39°49' W 075°22'0 0.0
2017-Jan-19 12:33N 39°49' W 075°22'0 0.1
2017-Jan-19 11:33N 39°49' W 075°22'0 0.0
2017-Jan-19 10:33N 39°49' W 075°22'0 0.0
2017-Jan-19 09:33N 39°49' W 075°22'0 0.0
2017-Jan-19 08:33N 39°49' W 075°22'0 0.0
2017-Jan-19 07:33N 39°49' W 075°22'0 0.0
2017-Jan-19 06:33N 39°49' W 075°22'0 0.0
2017-Jan-19 05:33N 39°49' W 075°22'0 0.0
2017-Jan-19 04:33N 39°49' W 075°22'0 0.0
2017-Jan-19 03:33N 39°49' W 075°22'0 0.0
2017-Jan-19 02:33N 39°49' W 075°22'0 0.0
2017-Jan-19 01:33N 39°49' W 075°22'0 0.0
2017-Jan-19 00:33N 39°49' W 075°22'0 0.0
2017-Jan-18 23:33N 39°49' W 075°22'1 1.0
2017-Jan-18 22:33N 39°49' W 075°23'1 1.0
2017-Jan-18 21:33N 39°49' W 075°22'0 0.0
2017-Jan-18 20:33N 39°49' W 075°22'0 0.0
2017-Jan-18 19:33N 39°49' W 075°22'0 0.0
2017-Jan-18 18:33N 39°49' W 075°22'0 0.0
2017-Jan-18 17:33N 39°49' W 075°22'0 0.0
2017-Jan-18 16:33N 39°49' W 075°22'0 0.0
2017-Jan-18 15:33N 39°49' W 075°22'0 0.0
2017-Jan-18 14:33N 39°49' W 075°22'0 0.0
2017-Jan-18 13:33N 39°49' W 075°22'0 0.0
2017-Jan-18 12:33N 39°49' W 075°22'0 0.0
2017-Jan-18 11:33N 39°49' W 075°22'0 0.0
2017-Jan-18 10:33N 39°49' W 075°22'0 0.1
2017-Jan-18 09:33N 39°50' W 075°22'1 1.4
2017-Jan-18 08:33N 39°51' W 075°21'2 2.2
2017-Jan-18 07:33N 39°51' W 075°18'3 2.7
2017-Jan-18 06:33N 39°51' W 075°14'4 4.0
2017-Jan-18 05:33N 39°53' W 075°09'5 4.5
2017-Jan-18 04:33N 39°57' W 075°08'4 4.3
2017-Jan-18 03:33N 39°60' W 075°04'0 0.0
2017-Jan-18 02:33N 39°60' W 075°04'0 0.0
2017-Jan-18 01:33N 39°60' W 075°04'0 0.0
2017-Jan-18 00:33N 39°60' W 075°04'0 0.0
2017-Jan-17 23:33N 39°60' W 075°04'0 0.0
2017-Jan-17 22:33N 39°60' W 075°04'0 0.0
2017-Jan-17 21:33N 39°60' W 075°04'0 0.0
2017-Jan-17 20:34N 39°60' W 075°04'0 0.0
2017-Jan-17 19:33N 39°60' W 075°04'0 0.0
2017-Jan-17 18:33N 39°60' W 075°04'0 0.3
2017-Jan-17 17:33N 40°00' W 075°03'0 0.4
2017-Jan-17 16:33N 39°60' W 075°04'0 0.0
2017-Jan-17 15:33N 39°60' W 075°04'0 0.0
2017-Jan-17 14:33N 39°60' W 075°04'0 0.0
2017-Jan-17 13:33N 39°60' W 075°04'0 0.0
2017-Jan-17 12:33N 39°60' W 075°04'0 0.0
2017-Jan-17 11:33N 39°60' W 075°04'0 0.0
2017-Jan-17 10:33N 39°60' W 075°04'0 0.0
2017-Jan-17 09:33N 39°60' W 075°04'0 0.0
2017-Jan-17 08:33N 39°60' W 075°04'0 0.1
2017-Jan-17 07:33N 40°00' W 075°04'0 0.0
2017-Jan-17 06:33N 40°00' W 075°04'0 0.1
2017-Jan-17 05:33N 40°00' W 075°04'0 0.1
2017-Jan-17 04:33N 40°00' W 075°04'0 0.0
2017-Jan-17 03:33N 40°00' W 075°04'0 0.0
2017-Jan-17 02:33N 40°00' W 075°04'0 0.0
2017-Jan-17 01:33N 40°00' W 075°04'0 0.0
2017-Jan-17 00:34N 40°00' W 075°04'0 0.0
2017-Jan-16 23:33N 40°00' W 075°04'0 0.0
2017-Jan-16 22:33N 40°00' W 075°04'0 0.0
2017-Jan-16 21:33N 40°00' W 075°04'0 0.1
2017-Jan-16 20:33N 40°00' W 075°04'0 0.1
2017-Jan-16 19:33N 40°00' W 075°04'0 0.0
2017-Jan-16 18:33N 40°00' W 075°04'0 0.0
2017-Jan-16 17:33N 40°00' W 075°04'0 0.0
2017-Jan-16 16:33N 40°00' W 075°04'0 0.0
2017-Jan-16 15:33N 39°60' W 075°04'0 0.0
2017-Jan-16 14:33N 39°60' W 075°04'0 0.2
2017-Jan-16 13:33N 39°60' W 075°04'1 1.2
2017-Jan-16 12:33N 39°59' W 075°04'3 2.8
2017-Jan-16 11:33N 39°58' W 075°08'0 0.0
2017-Jan-16 04:31N 39°57' W 075°08'0 0.0
2017-Jan-16 03:33N 39°57' W 075°08'0 0.0
2017-Jan-16 02:33N 39°57' W 075°08'0 0.0
2017-Jan-16 01:33N 39°57' W 075°08'0 0.0
2017-Jan-16 00:33N 39°57' W 075°08'0 0.0
2017-Jan-15 23:33N 39°57' W 075°08'0 0.0
2017-Jan-15 22:33N 39°57' W 075°08'0 0.0
2017-Jan-15 21:33N 39°57' W 075°08'0 0.0
2017-Jan-15 20:33N 39°57' W 075°08'0 0.0
2017-Jan-15 19:33N 39°57' W 075°08'0 0.0
2017-Jan-15 18:33N 39°57' W 075°08'5 4.7
2017-Jan-15 17:34N 39°53' W 075°09'1010.2
2017-Jan-15 16:34N 39°50' W 075°22'8 8.1
2017-Jan-15 15:33N 39°44' W 075°30'9 8.8
2017-Jan-15 14:33N 39°36' W 075°34'8 8.3
2017-Jan-15 13:33N 39°28' W 075°34'1010.0
2017-Jan-15 12:32N 39°20' W 075°25'5 4.9
2017-Jan-15 11:33N 39°17' W 075°21'7 6.6
2017-Jan-15 10:33N 39°11' W 075°17'56 5.4
2017-Jan-15 00:11N 39°32' W 074°09'6 9.0
2017-Jan-14 23:31N 39°38' W 074°06'46 9.1
2017-Jan-14 18:30N 40°23' W 073°56'9 9.6
2017-Jan-14 17:33N 40°31' W 074°02'9 9.4
2017-Jan-14 16:34N 40°40' W 074°04'1 0.7
2017-Jan-14 15:33N 40°41' W 074°04'0 0.0
2017-Jan-14 14:33N 40°41' W 074°04'0 0.0
2017-Jan-14 13:33N 40°41' W 074°04'0 0.0
2017-Jan-14 12:33N 40°41' W 074°04'0 0.0
2017-Jan-14 11:33N 40°41' W 074°04'0 0.0
2017-Jan-14 10:33N 40°41' W 074°04'0 0.0
2017-Jan-14 09:33N 40°41' W 074°04'0 0.0
2017-Jan-14 08:33N 40°41' W 074°04'0 0.0
2017-Jan-14 07:33N 40°41' W 074°04'0 0.0
2017-Jan-14 06:33N 40°41' W 074°04'0 0.0
2017-Jan-14 05:33N 40°41' W 074°04'0 0.0
2017-Jan-14 04:33N 40°41' W 074°04'0 0.0
2017-Jan-14 03:33N 40°41' W 074°04'0 0.0
2017-Jan-13 23:33N 40°41' W 074°04'0 0.2
2017-Jan-13 22:34N 40°40' W 074°04'0 0.2
2017-Jan-13 21:33N 40°41' W 074°05'0 0.0
2017-Jan-13 20:33N 40°41' W 074°05'0 0.0
2017-Jan-13 19:33N 40°41' W 074°05'0 0.0
2017-Jan-13 18:33N 40°41' W 074°05'0 0.0
2017-Jan-13 17:33N 40°41' W 074°05'0 0.0
2017-Jan-13 16:33N 40°41' W 074°05'0 0.1
2017-Jan-13 15:33N 40°41' W 074°05'0 0.1
2017-Jan-13 14:33N 40°41' W 074°05'3 2.8
2017-Jan-13 13:33N 40°39' W 074°07'0 0.2
2017-Jan-13 12:33N 40°39' W 074°07'3 2.6
2017-Jan-13 11:33N 40°40' W 074°04'0 0.2
2017-Jan-13 10:33N 40°41' W 074°05'0 0.0
2017-Jan-13 09:33N 40°41' W 074°05'0 0.0
2017-Jan-13 08:33N 40°41' W 074°05'0 0.0
2017-Jan-13 07:33N 40°41' W 074°05'0 0.0
2017-Jan-13 06:33N 40°41' W 074°05'0 0.0
2017-Jan-13 05:33N 40°41' W 074°05'0 0.0
2017-Jan-13 04:33N 40°41' W 074°05'0 0.0
2017-Jan-13 03:33N 40°41' W 074°05'0 0.0
2017-Jan-13 02:33N 40°41' W 074°05'0 0.0
2017-Jan-13 01:33N 40°41' W 074°05'0 0.0
2017-Jan-13 00:33N 40°41' W 074°05'0 0.0
2017-Jan-12 23:33N 40°41' W 074°05'0 0.0
2017-Jan-12 22:33N 40°41' W 074°05'0 0.0
2017-Jan-12 21:33N 40°41' W 074°05'4 3.9
2017-Jan-12 20:33N 40°39' W 074°09'2 1.9
2017-Jan-12 19:33N 40°39' W 074°07'0 0.0
2017-Jan-12 18:33N 40°39' W 074°07'2 2.0
2017-Jan-12 17:33N 40°40' W 074°04'1 0.8
2017-Jan-12 16:34N 40°40' W 074°04'1 1.0
2017-Jan-12 15:33N 40°40' W 074°03'6 6.0
2017-Jan-12 14:33N 40°46' W 074°01'5 4.6
2017-Jan-12 13:33N 40°50' W 073°58'  
Track history (hours):
 
Tides and Currents Weather Stations Pressure Air Temp Water Temp Dewpoint Dewpoint Depression Visibility Wind Speed Wind Dir Waves Ship Positions

Tug "trevor"

Owner: WEEKS MARINE, INC., CRANFORD, NJ. More information available from US FCC via Universal Licensing System and Coast Guard Vessel Documentation Center.

Last reported at 2017-Jan-22 01:33 UTC. Time now 2017-Jan-22 01:43 UTC.
Position N 39°54' W 075°08'.

Length 21 m; draft 3 m.

Type: Towing. MMSI: 366643140.

Date/timePositionNaut miles runAvg speedWind from/ knotsBaromVisibWave heightAir tempDewpointWater temp
2017-Jan-22 01:33N 39°54' W 075°08'0 0.0
2017-Jan-22 00:33N 39°54' W 075°08'0 0.0
2017-Jan-21 23:33N 39°54' W 075°08'0 0.3
2017-Jan-21 22:33N 39°54' W 075°09'0 0.0
2017-Jan-21 21:33N 39°54' W 075°09'0 0.3
2017-Jan-21 20:33N 39°54' W 075°08'0 0.1
2017-Jan-21 19:33N 39°54' W 075°08'0 0.0
2017-Jan-21 18:33N 39°54' W 075°08'0 0.0
2017-Jan-21 17:33N 39°54' W 075°08'0 0.0
2017-Jan-21 16:33N 39°54' W 075°08'0 0.0
2017-Jan-21 15:33N 39°54' W 075°08'3 2.8
2017-Jan-21 14:33N 39°53' W 075°12'5 5.0
2017-Jan-21 13:33N 39°51' W 075°18'0 0.1
2017-Jan-21 12:33N 39°51' W 075°18'0 0.1
2017-Jan-21 11:33N 39°51' W 075°18'3 3.2
2017-Jan-21 10:33N 39°50' W 075°22'0 0.0
2017-Jan-21 09:33N 39°50' W 075°22'0 0.0
2017-Jan-21 08:33N 39°50' W 075°22'0 0.0
2017-Jan-21 07:33N 39°50' W 075°22'0 0.0
2017-Jan-21 06:33N 39°50' W 075°22'0 0.0
2017-Jan-21 05:33N 39°50' W 075°22'0 0.0
2017-Jan-21 04:33N 39°50' W 075°22'0 0.0
2017-Jan-21 03:33N 39°50' W 075°22'3 2.5
2017-Jan-21 02:33N 39°51' W 075°19'1 0.9
2017-Jan-21 01:33N 39°51' W 075°18'0 0.0
2017-Jan-21 00:33N 39°51' W 075°18'0 0.0
2017-Jan-20 23:33N 39°51' W 075°18'2 2.1
2017-Jan-20 22:33N 39°51' W 075°21'1 1.3
2017-Jan-20 21:33N 39°50' W 075°22'0 0.2
2017-Jan-20 20:33N 39°49' W 075°22'0 0.2
2017-Jan-20 19:34N 39°50' W 075°22'0 0.2
2017-Jan-20 18:33N 39°49' W 075°22'0 0.1
2017-Jan-20 17:33N 39°49' W 075°22'0 0.1
2017-Jan-20 16:33N 39°49' W 075°22'0 0.0
2017-Jan-20 15:33N 39°49' W 075°22'0 0.0
2017-Jan-20 14:33N 39°49' W 075°22'0 0.0
2017-Jan-20 13:33N 39°49' W 075°22'0 0.0
2017-Jan-20 12:33N 39°49' W 075°22'0 0.0
2017-Jan-20 11:33N 39°49' W 075°22'0 0.0
2017-Jan-20 10:33N 39°49' W 075°22'0 0.0
2017-Jan-20 09:33N 39°49' W 075°22'0 0.0
2017-Jan-20 08:33N 39°49' W 075°22'0 0.0
2017-Jan-20 07:33N 39°49' W 075°22'0 0.0
2017-Jan-20 06:33N 39°49' W 075°22'0 0.0
2017-Jan-20 05:33N 39°49' W 075°22'0 0.0
2017-Jan-20 04:33N 39°49' W 075°22'0 0.0
2017-Jan-20 03:33N 39°49' W 075°22'0 0.0
2017-Jan-20 02:33N 39°49' W 075°22'0 0.0
2017-Jan-20 01:33N 39°49' W 075°22'0 0.0
2017-Jan-20 00:33N 39°49' W 075°22'0 0.0
2017-Jan-19 23:33N 39°49' W 075°22'0 0.0
2017-Jan-19 22:33N 39°49' W 075°22'0 0.0
2017-Jan-19 21:33N 39°49' W 075°22'0 0.0
2017-Jan-19 20:33N 39°49' W 075°22'0 0.0
2017-Jan-19 19:33N 39°49' W 075°22'0 0.0
2017-Jan-19 18:33N 39°49' W 075°22'0 0.0
2017-Jan-19 17:33N 39°49' W 075°22'0 0.0
2017-Jan-19 16:33N 39°49' W 075°22'0 0.0
2017-Jan-19 15:33N 39°49' W 075°22'0 0.1
2017-Jan-19 14:33N 39°49' W 075°22'0 0.1
2017-Jan-19 13:33N 39°49' W 075°22'0 0.0
2017-Jan-19 12:33N 39°49' W 075°22'0 0.1
2017-Jan-19 11:33N 39°49' W 075°22'0 0.0
2017-Jan-19 10:33N 39°49' W 075°22'0 0.0
2017-Jan-19 09:33N 39°49' W 075°22'0 0.0
2017-Jan-19 08:33N 39°49' W 075°22'0 0.0
2017-Jan-19 07:33N 39°49' W 075°22'0 0.0
2017-Jan-19 06:33N 39°49' W 075°22'0 0.0
2017-Jan-19 05:33N 39°49' W 075°22'0 0.0
2017-Jan-19 04:33N 39°49' W 075°22'0 0.0
2017-Jan-19 03:33N 39°49' W 075°22'0 0.0
2017-Jan-19 02:33N 39°49' W 075°22'0 0.0
2017-Jan-19 01:33N 39°49' W 075°22'0 0.0
2017-Jan-19 00:33N 39°49' W 075°22'0 0.0
2017-Jan-18 23:33N 39°49' W 075°22'1 1.0
2017-Jan-18 22:33N 39°49' W 075°23'1 1.0
2017-Jan-18 21:33N 39°49' W 075°22'0 0.0
2017-Jan-18 20:33N 39°49' W 075°22'0 0.0
2017-Jan-18 19:33N 39°49' W 075°22'0 0.0
2017-Jan-18 18:33N 39°49' W 075°22'0 0.0
2017-Jan-18 17:33N 39°49' W 075°22'0 0.0
2017-Jan-18 16:33N 39°49' W 075°22'0 0.0
2017-Jan-18 15:33N 39°49' W 075°22'0 0.0
2017-Jan-18 14:33N 39°49' W 075°22'0 0.0
2017-Jan-18 13:33N 39°49' W 075°22'0 0.0
2017-Jan-18 12:33N 39°49' W 075°22'0 0.0
2017-Jan-18 11:33N 39°49' W 075°22'0 0.0
2017-Jan-18 10:33N 39°49' W 075°22'0 0.1
2017-Jan-18 09:33N 39°50' W 075°22'1 1.4
2017-Jan-18 08:33N 39°51' W 075°21'2 2.2
2017-Jan-18 07:33N 39°51' W 075°18'3 2.7
2017-Jan-18 06:33N 39°51' W 075°14'4 4.0
2017-Jan-18 05:33N 39°53' W 075°09'5 4.5
2017-Jan-18 04:33N 39°57' W 075°08'4 4.3
2017-Jan-18 03:33N 39°60' W 075°04'0 0.0
2017-Jan-18 02:33N 39°60' W 075°04'0 0.0
2017-Jan-18 01:33N 39°60' W 075°04'0 0.0
2017-Jan-18 00:33N 39°60' W 075°04'0 0.0
2017-Jan-17 23:33N 39°60' W 075°04'0 0.0
2017-Jan-17 22:33N 39°60' W 075°04'0 0.0
2017-Jan-17 21:33N 39°60' W 075°04'0 0.0
2017-Jan-17 20:34N 39°60' W 075°04'0 0.0
2017-Jan-17 19:33N 39°60' W 075°04'0 0.0
2017-Jan-17 18:33N 39°60' W 075°04'0 0.3
2017-Jan-17 17:33N 40°00' W 075°03'0 0.4
2017-Jan-17 16:33N 39°60' W 075°04'0 0.0
2017-Jan-17 15:33N 39°60' W 075°04'0 0.0
2017-Jan-17 14:33N 39°60' W 075°04'0 0.0
2017-Jan-17 13:33N 39°60' W 075°04'0 0.0
2017-Jan-17 12:33N 39°60' W 075°04'0 0.0
2017-Jan-17 11:33N 39°60' W 075°04'0 0.0
2017-Jan-17 10:33N 39°60' W 075°04'0 0.0
2017-Jan-17 09:33N 39°60' W 075°04'0 0.0
2017-Jan-17 08:33N 39°60' W 075°04'0 0.1
2017-Jan-17 07:33N 40°00' W 075°04'0 0.0
2017-Jan-17 06:33N 40°00' W 075°04'0 0.1
2017-Jan-17 05:33N 40°00' W 075°04'0 0.1
2017-Jan-17 04:33N 40°00' W 075°04'0 0.0
2017-Jan-17 03:33N 40°00' W 075°04'0 0.0
2017-Jan-17 02:33N 40°00' W 075°04'0 0.0
2017-Jan-17 01:33N 40°00' W 075°04'0 0.0
2017-Jan-17 00:34N 40°00' W 075°04'0 0.0
2017-Jan-16 23:33N 40°00' W 075°04'0 0.0
2017-Jan-16 22:33N 40°00' W 075°04'0 0.0
2017-Jan-16 21:33N 40°00' W 075°04'0 0.1
2017-Jan-16 20:33N 40°00' W 075°04'0 0.1
2017-Jan-16 19:33N 40°00' W 075°04'0 0.0
2017-Jan-16 18:33N 40°00' W 075°04'0 0.0
2017-Jan-16 17:33N 40°00' W 075°04'0 0.0
2017-Jan-16 16:33N 40°00' W 075°04'0 0.0
2017-Jan-16 15:33N 39°60' W 075°04'0 0.0
2017-Jan-16 14:33N 39°60' W 075°04'0 0.2
2017-Jan-16 13:33N 39°60' W 075°04'1 1.2
2017-Jan-16 12:33N 39°59' W 075°04'3 2.8
2017-Jan-16 11:33N 39°58' W 075°08'0 0.0
2017-Jan-16 04:31N 39°57' W 075°08'0 0.0
2017-Jan-16 03:33N 39°57' W 075°08'0 0.0
2017-Jan-16 02:33N 39°57' W 075°08'0 0.0
2017-Jan-16 01:33N 39°57' W 075°08'0 0.0
2017-Jan-16 00:33N 39°57' W 075°08'0 0.0
2017-Jan-15 23:33N 39°57' W 075°08'0 0.0
2017-Jan-15 22:33N 39°57' W 075°08'0 0.0
2017-Jan-15 21:33N 39°57' W 075°08'0 0.0
2017-Jan-15 20:33N 39°57' W 075°08'0 0.0
2017-Jan-15 19:33N 39°57' W 075°08'0 0.0
2017-Jan-15 18:33N 39°57' W 075°08'5 4.7
2017-Jan-15 17:34N 39°53' W 075°09'1010.2
2017-Jan-15 16:34N 39°50' W 075°22'8 8.1
2017-Jan-15 15:33N 39°44' W 075°30'9 8.8
2017-Jan-15 14:33N 39°36' W 075°34'8 8.3
2017-Jan-15 13:33N 39°28' W 075°34'1010.0
2017-Jan-15 12:32N 39°20' W 075°25'5 4.9
2017-Jan-15 11:33N 39°17' W 075°21'7 6.6
2017-Jan-15 10:33N 39°11' W 075°17'56 5.4
2017-Jan-15 00:11N 39°32' W 074°09'6 9.0
2017-Jan-14 23:31N 39°38' W 074°06'46 9.1
2017-Jan-14 18:30N 40°23' W 073°56'9 9.6
2017-Jan-14 17:33N 40°31' W 074°02'9 9.4
2017-Jan-14 16:34N 40°40' W 074°04'1 0.7
2017-Jan-14 15:33N 40°41' W 074°04'0 0.0
2017-Jan-14 14:33N 40°41' W 074°04'0 0.0
2017-Jan-14 13:33N 40°41' W 074°04'0 0.0
2017-Jan-14 12:33N 40°41' W 074°04'0 0.0
2017-Jan-14 11:33N 40°41' W 074°04'0 0.0
2017-Jan-14 10:33N 40°41' W 074°04'0 0.0
2017-Jan-14 09:33N 40°41' W 074°04'0 0.0
2017-Jan-14 08:33N 40°41' W 074°04'0 0.0
2017-Jan-14 07:33N 40°41' W 074°04'0 0.0
2017-Jan-14 06:33N 40°41' W 074°04'0 0.0
2017-Jan-14 05:33N 40°41' W 074°04'0 0.0
2017-Jan-14 04:33N 40°41' W 074°04'0 0.0
2017-Jan-14 03:33N 40°41' W 074°04'0 0.0
2017-Jan-13 23:33N 40°41' W 074°04'0 0.2
2017-Jan-13 22:34N 40°40' W 074°04'0 0.2
2017-Jan-13 21:33N 40°41' W 074°05'0 0.0
2017-Jan-13 20:33N 40°41' W 074°05'0 0.0
2017-Jan-13 19:33N 40°41' W 074°05'0 0.0
2017-Jan-13 18:33N 40°41' W 074°05'0 0.0
2017-Jan-13 17:33N 40°41' W 074°05'0 0.0
2017-Jan-13 16:33N 40°41' W 074°05'0 0.1
2017-Jan-13 15:33N 40°41' W 074°05'0 0.1
2017-Jan-13 14:33N 40°41' W 074°05'3 2.8
2017-Jan-13 13:33N 40°39' W 074°07'0 0.2
2017-Jan-13 12:33N 40°39' W 074°07'3 2.6
2017-Jan-13 11:33N 40°40' W 074°04'0 0.2
2017-Jan-13 10:33N 40°41' W 074°05'0 0.0
2017-Jan-13 09:33N 40°41' W 074°05'0 0.0
2017-Jan-13 08:33N 40°41' W 074°05'0 0.0
2017-Jan-13 07:33N 40°41' W 074°05'0 0.0
2017-Jan-13 06:33N 40°41' W 074°05'0 0.0
2017-Jan-13 05:33N 40°41' W 074°05'0 0.0
2017-Jan-13 04:33N 40°41' W 074°05'0 0.0
2017-Jan-13 03:33N 40°41' W 074°05'0 0.0
2017-Jan-13 02:33N 40°41' W 074°05'0 0.0
2017-Jan-13 01:33N 40°41' W 074°05'0 0.0
2017-Jan-13 00:33N 40°41' W 074°05'0 0.0
2017-Jan-12 23:33N 40°41' W 074°05'0 0.0
2017-Jan-12 22:33N 40°41' W 074°05'0 0.0
2017-Jan-12 21:33N 40°41' W 074°05'4 3.9
2017-Jan-12 20:33N 40°39' W 074°09'2 1.9
2017-Jan-12 19:33N 40°39' W 074°07'0 0.0
2017-Jan-12 18:33N 40°39' W 074°07'2 2.0
2017-Jan-12 17:33N 40°40' W 074°04'1 0.8
2017-Jan-12 16:34N 40°40' W 074°04'1 1.0
2017-Jan-12 15:33N 40°40' W 074°03'6 6.0
2017-Jan-12 14:33N 40°46' W 074°01'5 4.6
2017-Jan-12 13:33N 40°50' W 073°58'  

Dump ship's entire track history